Time,TemperatureF,DewpointF,PressureIn,WindDirection,WindDirectionDegrees,WindSpeedMPH,WindSpeedGustMPH,Humidity,HourlyPrecipIn,Conditions,Clouds,dailyrainin,SoftwareType,DateUTC
2013-05-13 00:00:00,54.8,42.8,29.88,South,169,0.0,0.0,64,0.00,,,-99.99,Weather View 32 v60,2013-05-13 07:00:00,
2013-05-13 00:05:00,54.6,43.0,29.88,South,169,0.0,0.0,65,0.00,,,-99.99,Weather View 32 v60,2013-05-13 07:05:00,
2013-05-13 00:15:00,54.2,43.1,29.89,South,169,0.0,0.0,66,0.00,,,-99.99,Weather View 32 v60,2013-05-13 07:15:00,
2013-05-13 00:20:00,53.9,42.8,29.89,South,169,0.0,0.0,66,0.00,,,-99.99,Weather View 32 v60,2013-05-13 07:20:00,
2013-05-13 00:30:00,53.4,42.7,29.89,South,169,0.0,0.0,67,0.00,,,-99.99,Weather View 32 v60,2013-05-13 07:30:00,
2013-05-13 00:35:00,53.2,42.5,29.89,South,169,0.0,0.0,67,0.00,,,-99.99,Weather View 32 v60,2013-05-13 07:35:00,
2013-05-13 00:40:00,52.9,42.2,29.89,South,169,0.0,0.0,67,0.00,,,-99.99,Weather View 32 v60,2013-05-13 07:40:00,
2013-05-13 00:48:00,52.7,42.0,29.89,South,169,0.0,0.0,67,0.00,,,-99.99,Weather View 32 v60,2013-05-13 07:48:00,
2013-05-13 00:55:00,50.4,40.2,29.89,South,169,0.0,0.0,68,0.00,,,-99.99,Weather View 32 v60,2013-05-13 07:55:00,
2013-05-13 01:00:00,46.4,36.4,29.89,South,169,0.0,0.0,68,0.00,,,-99.99,Weather View 32 v60,2013-05-13 08:00:00,
2013-05-13 01:10:00,52.1,42.2,29.88,South,169,0.0,0.0,69,0.00,,,-99.99,Weather View 32 v60,2013-05-13 08:10:00,
2013-05-13 01:20:00,52.1,42.6,29.88,South,169,0.0,0.0,70,0.00,,,-99.99,Weather View 32 v60,2013-05-13 08:20:00,
2013-05-13 01:25:00,51.9,42.8,29.89,South,169,0.0,0.0,71,0.00,,,-99.99,Weather View 32 v60,2013-05-13 08:25:00,
2013-05-13 01:35:00,51.5,42.8,29.89,South,169,0.0,0.0,72,0.00,,,-99.99,Weather View 32 v60,2013-05-13 08:35:00,
2013-05-13 01:45:00,51.3,42.9,29.89,South,169,0.0,0.0,73,0.00,,,-99.99,Weather View 32 v60,2013-05-13 08:45:00,
2013-05-13 01:55:00,51.1,42.7,29.89,South,169,0.0,0.0,73,0.00,,,-99.99,Weather View 32 v60,2013-05-13 08:55:00,
2013-05-13 02:05:00,50.9,42.9,29.88,South,169,0.0,0.0,74,0.00,,,-99.99,Weather View 32 v60,2013-05-13 09:05:00,
2013-05-13 02:10:00,50.8,42.8,29.88,South,169,0.0,0.0,74,0.00,,,-99.99,Weather View 32 v60,2013-05-13 09:10:00,
2013-05-13 02:15:00,50.8,42.8,29.88,South,169,0.0,0.0,74,0.00,,,-99.99,Weather View 32 v60,2013-05-13 09:15:00,
2013-05-13 02:25:00,50.6,43.0,29.88,South,169,0.0,0.0,75,0.00,,,-99.99,Weather View 32 v60,2013-05-13 09:25:00,
2013-05-13 02:30:00,50.5,42.9,29.88,South,169,0.0,0.0,75,0.00,,,-99.99,Weather View 32 v60,2013-05-13 09:30:00,
2013-05-13 02:40:00,50.1,43.2,29.88,South,169,0.0,0.0,77,0.00,,,-99.99,Weather View 32 v60,2013-05-13 09:40:00,
2013-05-13 02:45:00,50.0,43.1,29.88,South,169,0.0,0.0,77,0.00,,,-99.99,Weather View 32 v60,2013-05-13 09:45:00,
2013-05-13 02:55:00,49.9,43.3,29.88,South,169,0.0,0.0,78,0.00,,,-99.99,Weather View 32 v60,2013-05-13 09:55:00,
2013-05-13 03:05:00,49.7,43.1,29.88,South,169,0.0,0.0,78,0.00,,,-99.99,Weather View 32 v60,2013-05-13 10:05:00,
2013-05-13 03:10:00,49.6,43.0,29.88,South,169,0.0,0.0,78,0.00,,,-99.99,Weather View 32 v60,2013-05-13 10:10:00,
2013-05-13 03:20:00,49.3,42.4,29.88,South,169,0.0,0.0,77,0.00,,,-99.99,Weather View 32 v60,2013-05-13 10:20:00,
2013-05-13 03:25:00,49.2,42.3,29.89,South,169,0.0,0.0,77,0.00,,,-99.99,Weather View 32 v60,2013-05-13 10:25:00,
2013-05-13 03:35:00,48.9,42.0,29.88,South,169,0.0,0.0,77,0.00,,,-99.99,Weather View 32 v60,2013-05-13 10:35:00,
2013-05-13 03:40:00,48.8,42.2,29.88,South,169,0.0,0.0,78,0.00,,,-99.99,Weather View 32 v60,2013-05-13 10:40:00,
2013-05-13 03:50:00,48.4,41.8,29.88,South,169,0.0,0.0,78,0.00,,,-99.99,Weather View 32 v60,2013-05-13 10:50:00,
2013-05-13 04:00:00,48.1,41.9,29.88,South,169,0.0,0.0,79,0.00,,,-99.99,Weather View 32 v60,2013-05-13 11:00:00,
2013-05-13 04:05:00,48.0,41.8,29.89,South,169,0.0,0.0,79,0.00,,,-99.99,Weather View 32 v60,2013-05-13 11:05:00,
2013-05-13 04:15:00,47.6,41.4,29.88,South,169,0.0,0.0,79,0.00,,,-99.99,Weather View 32 v60,2013-05-13 11:15:00,
2013-05-13 04:20:00,47.1,40.9,29.89,South,169,0.0,0.0,79,0.00,,,-99.99,Weather View 32 v60,2013-05-13 11:20:00,
2013-05-13 04:25:00,46.6,40.4,29.89,South,169,0.0,0.0,79,0.00,,,-99.99,Weather View 32 v60,2013-05-13 11:25:00,
2013-05-13 04:35:00,41.3,35.3,29.89,South,169,0.0,0.0,79,0.00,,,-99.99,Weather View 32 v60,2013-05-13 11:35:00,
2013-05-13 04:45:00,39.6,33.9,29.89,South,169,0.0,0.0,80,0.00,,,-99.99,Weather View 32 v60,2013-05-13 11:45:00,
2013-05-13 04:51:00,42.1,36.1,29.89,South,169,0.0,0.0,79,0.00,,,-99.99,Weather View 32 v60,2013-05-13 11:51:00,
2013-05-13 05:00:00,44.4,38.6,29.89,South,169,0.0,0.0,80,0.00,,,-99.99,Weather View 32 v60,2013-05-13 12:00:00,
2013-05-13 05:05:00,45.9,40.1,29.89,South,169,0.0,0.0,80,0.00,,,-99.99,Weather View 32 v60,2013-05-13 12:05:00,
2013-05-13 05:15:00,44.8,39.0,29.89,South,169,0.0,0.0,80,0.00,,,-99.99,Weather View 32 v60,2013-05-13 12:15:00,
2013-05-13 05:25:00,46.1,40.6,29.89,South,169,0.0,0.0,81,0.00,,,-99.99,Weather View 32 v60,2013-05-13 12:25:00,
2013-05-13 05:30:00,47.4,41.5,29.89,South,169,0.0,0.0,80,0.00,,,-99.99,Weather View 32 v60,2013-05-13 12:30:00,
2013-05-13 05:40:00,47.5,41.6,29.90,South,169,0.0,0.0,80,0.00,,,-99.99,Weather View 32 v60,2013-05-13 12:40:00,
2013-05-13 05:50:00,47.5,41.6,29.90,South,169,0.0,0.0,80,0.00,,,-99.99,Weather View 32 v60,2013-05-13 12:50:00,
2013-05-13 05:55:00,47.5,42.0,29.90,South,169,0.0,0.0,81,0.00,,,-99.99,Weather View 32 v60,2013-05-13 12:55:00,
2013-05-13 06:00:00,47.4,41.9,29.90,South,169,0.0,0.0,81,0.00,,,-99.99,Weather View 32 v60,2013-05-13 13:00:00,
2013-05-13 06:05:00,47.4,41.9,29.90,South,169,0.0,0.0,81,0.00,,,-99.99,Weather View 32 v60,2013-05-13 13:05:00,
2013-05-13 06:15:00,47.3,41.8,29.90,South,169,0.0,0.0,81,0.00,,,-99.99,Weather View 32 v60,2013-05-13 13:15:00,
2013-05-13 06:25:00,47.3,41.8,29.91,South,169,0.0,0.0,81,0.00,,,-99.99,Weather View 32 v60,2013-05-13 13:25:00,
2013-05-13 06:35:00,47.3,42.1,29.91,South,169,0.0,0.0,82,0.00,,,-99.99,Weather View 32 v60,2013-05-13 13:35:00,
2013-05-13 06:40:00,47.3,42.1,29.91,South,169,0.0,0.0,82,0.00,,,-99.99,Weather View 32 v60,2013-05-13 13:40:00,
2013-05-13 06:50:00,47.5,42.3,29.92,South,169,0.0,0.0,82,0.00,,,-99.99,Weather View 32 v60,2013-05-13 13:50:00,
2013-05-13 06:55:00,47.6,42.4,29.92,South,169,0.0,0.0,82,0.00,,,-99.99,Weather View 32 v60,2013-05-13 13:55:00,
2013-05-13 07:00:00,47.7,42.5,29.92,South,169,0.0,0.0,82,0.00,,,-99.99,Weather View 32 v60,2013-05-13 14:00:00,
2013-05-13 07:10:00,47.9,42.7,29.92,South,169,0.0,0.0,82,0.00,,,-99.99,Weather View 32 v60,2013-05-13 14:10:00,
2013-05-13 07:15:00,48.0,43.1,29.92,South,169,0.0,0.0,83,0.00,,,-99.99,Weather View 32 v60,2013-05-13 14:15:00,
2013-05-13 07:25:00,48.2,43.3,29.92,South,169,0.0,0.0,83,0.00,,,-99.99,Weather View 32 v60,2013-05-13 14:25:00,
2013-05-13 07:35:00,48.5,43.6,29.92,South,169,0.0,0.0,83,0.00,,,-99.99,Weather View 32 v60,2013-05-13 14:35:00,
2013-05-13 07:45:00,48.8,43.9,29.92,South,169,0.0,0.0,83,0.00,,,-99.99,Weather View 32 v60,2013-05-13 14:45:00,
2013-05-13 07:50:00,49.0,44.4,29.92,South,169,0.0,0.0,84,0.00,,,-99.99,Weather View 32 v60,2013-05-13 14:50:00,
2013-05-13 07:55:00,49.2,44.6,29.93,South,169,0.0,0.0,84,0.00,,,-99.99,Weather View 32 v60,2013-05-13 14:55:00,
2013-05-13 08:05:00,49.8,45.2,29.92,South,169,0.0,0.0,84,0.00,,,-99.99,Weather View 32 v60,2013-05-13 15:05:00,
2013-05-13 08:15:00,50.1,45.4,29.93,South,169,0.0,0.0,84,0.00,,,-99.99,Weather View 32 v60,2013-05-13 15:15:00,
2013-05-13 08:20:00,50.3,45.6,29.93,South,169,0.0,0.0,84,0.00,,,-99.99,Weather View 32 v60,2013-05-13 15:20:00,
2013-05-13 08:30:00,50.8,46.4,29.93,South,169,0.0,0.0,85,0.00,,,-99.99,Weather View 32 v60,2013-05-13 15:30:00,
2013-05-13 08:40:00,51.4,47.0,29.93,South,169,0.0,0.0,85,0.00,,,-99.99,Weather View 32 v60,2013-05-13 15:40:00,
2013-05-13 08:50:00,52.1,47.7,29.93,South,169,0.0,0.0,85,0.00,,,-99.99,Weather View 32 v60,2013-05-13 15:50:00,
2013-05-13 09:00:00,52.8,48.4,29.94,South,169,0.0,0.0,85,0.00,,,-99.99,Weather View 32 v60,2013-05-13 16:00:00,
2013-05-13 09:10:00,53.7,49.0,29.94,South,169,0.0,0.0,84,0.00,,,-99.99,Weather View 32 v60,2013-05-13 16:10:00,
2013-05-13 09:20:00,54.6,49.9,29.94,South,169,0.0,0.0,84,0.00,,,-99.99,Weather View 32 v60,2013-05-13 16:20:00,
2013-05-13 09:25:00,55.1,49.7,29.94,South,169,0.0,0.0,82,0.00,,,-99.99,Weather View 32 v60,2013-05-13 16:25:00,
2013-05-13 09:30:00,55.8,50.4,29.94,South,169,0.0,0.0,82,0.00,,,-99.99,Weather View 32 v60,2013-05-13 16:30:00,
2013-05-13 09:35:00,56.5,50.7,29.94,South,169,0.0,0.0,81,0.00,,,-99.99,Weather View 32 v60,2013-05-13 16:35:00,
2013-05-13 09:40:00,57.2,51.1,29.94,South,169,0.0,0.0,80,0.00,,,-99.99,Weather View 32 v60,2013-05-13 16:40:00,
2013-05-13 09:50:00,58.7,51.8,29.94,South,169,0.0,0.0,78,0.00,,,-99.99,Weather View 32 v60,2013-05-13 16:50:00,
2013-05-13 09:55:00,59.4,52.2,29.94,South,169,0.0,0.0,77,0.00,,,-99.99,Weather View 32 v60,2013-05-13 16:55:00,
2013-05-13 10:00:00,60.1,53.2,29.94,NNE,17,0.0,0.0,78,0.00,,,-99.99,Weather View 32 v60,2013-05-13 17:00:00,
2013-05-13 10:05:00,61.0,53.4,29.94,NNW,348,0.0,0.0,76,0.00,,,-99.99,Weather View 32 v60,2013-05-13 17:05:00,
2013-05-13 10:10:00,62.0,54.0,29.93,NNW,348,0.0,0.0,75,0.00,,,-99.99,Weather View 32 v60,2013-05-13 17:10:00,
2013-05-13 10:20:00,63.2,53.6,29.93,NNW,348,0.0,0.0,71,0.00,,,-99.99,Weather View 32 v60,2013-05-13 17:20:00,
2013-05-13 10:25:00,63.9,53.9,29.93,NNW,348,0.0,0.0,70,0.00,,,-99.99,Weather View 32 v60,2013-05-13 17:25:00,
2013-05-13 10:30:00,64.6,54.6,29.93,NNW,348,0.0,0.0,70,0.00,,,-99.99,Weather View 32 v60,2013-05-13 17:30:00,
2013-05-13 10:40:00,65.6,54.7,29.93,NNW,348,0.0,0.0,68,0.00,,,-99.99,Weather View 32 v60,2013-05-13 17:40:00,
2013-05-13 10:45:00,66.2,55.3,29.92,NNW,348,0.0,0.0,68,0.00,,,-99.99,Weather View 32 v60,2013-05-13 17:45:00,
2013-05-13 10:50:00,66.8,55.5,29.93,North,349,0.0,0.0,67,0.00,,,-99.99,Weather View 32 v60,2013-05-13 17:50:00,
2013-05-13 10:55:00,67.4,56.0,29.93,North,349,0.0,0.0,67,0.00,,,-99.99,Weather View 32 v60,2013-05-13 17:55:00,
2013-05-13 11:00:00,68.0,56.2,29.93,ESE,109,0.0,0.0,66,0.00,,,-99.99,Weather View 32 v60,2013-05-13 18:00:00,
2013-05-13 11:05:00,68.6,56.3,29.92,ESE,113,0.0,0.0,65,0.00,,,-99.99,Weather View 32 v60,2013-05-13 18:05:00,
2013-05-13 11:10:00,69.1,55.9,29.92,NNE,30,0.0,0.0,63,0.00,,,-99.99,Weather View 32 v60,2013-05-13 18:10:00,
2013-05-13 11:20:00,70.5,56.8,29.93,ENE,60,0.0,0.0,62,0.00,,,-99.99,Weather View 32 v60,2013-05-13 18:20:00,
2013-05-13 11:25:00,71.1,56.9,29.93,NNE,21,0.0,0.0,61,0.00,,,-99.99,Weather View 32 v60,2013-05-13 18:25:00,
2013-05-13 11:30:00,71.7,56.6,29.93,North,0,0.0,0.0,59,0.00,,,-99.99,Weather View 32 v60,2013-05-13 18:30:00,
2013-05-13 11:40:00,72.2,56.6,29.93,NE,47,4.0,10.0,58,0.00,,,-99.99,Weather View 32 v60,2013-05-13 18:40:00,
2013-05-13 11:45:00,72.4,56.7,29.93,NNE,28,6.0,11.0,58,0.00,,,-99.99,Weather View 32 v60,2013-05-13 18:45:00,
2013-05-13 11:50:00,72.4,56.7,29.93,NNW,346,6.0,11.0,58,0.00,,,-99.99,Weather View 32 v60,2013-05-13 18:50:00,
2013-05-13 12:00:00,72.4,56.3,29.93,NNE,24,9.0,12.0,57,0.00,,,-99.99,Weather View 32 v60,2013-05-13 19:00:00,
2013-05-13 12:05:00,72.4,56.7,29.92,North,357,4.0,12.0,58,0.00,,,-99.99,Weather View 32 v60,2013-05-13 19:05:00,
2013-05-13 12:10:00,72.4,56.3,29.92,NNE,31,7.0,12.0,57,0.00,,,-99.99,Weather View 32 v60,2013-05-13 19:10:00,
2013-05-13 12:20:00,73.1,56.9,29.92,North,351,2.0,13.0,57,0.00,,,-99.99,Weather View 32 v60,2013-05-13 19:20:00,
2013-05-13 12:30:00,73.6,57.4,29.92,NNE,24,4.0,13.0,57,0.00,,,-99.99,Weather View 32 v60,2013-05-13 19:30:00,
2013-05-13 12:35:00,73.7,57.0,29.91,NNW,347,2.0,13.0,56,0.00,,,-99.99,Weather View 32 v60,2013-05-13 19:35:00,
2013-05-13 12:40:00,73.9,57.2,29.91,NNW,343,5.0,13.0,56,0.00,,,-99.99,Weather View 32 v60,2013-05-13 19:40:00,
2013-05-13 12:45:00,74.2,57.4,29.91,North,0,4.0,13.0,56,0.00,,,-99.99,Weather View 32 v60,2013-05-13 19:45:00,
2013-05-13 12:50:00,74.5,57.2,29.91,NNE,19,7.0,13.0,55,0.00,,,-99.99,Weather View 32 v60,2013-05-13 19:50:00,
2013-05-13 12:55:00,74.7,57.4,29.91,NNE,25,8.0,13.0,55,0.00,,,-99.99,Weather View 32 v60,2013-05-13 19:55:00,
2013-05-13 13:05:00,75.0,56.7,29.90,NE,37,5.0,13.0,53,0.00,,,-99.99,Weather View 32 v60,2013-05-13 20:05:00,
2013-05-13 13:10:00,75.3,56.9,29.90,NNE,33,8.0,13.0,53,0.00,,,-99.99,Weather View 32 v60,2013-05-13 20:10:00,
2013-05-13 13:15:00,75.5,57.6,29.90,NE,35,6.0,13.0,54,0.00,,,-99.99,Weather View 32 v60,2013-05-13 20:15:00,
2013-05-13 13:20:00,75.5,58.1,29.90,NNE,17,7.0,13.0,55,0.00,,,-99.99,Weather View 32 v60,2013-05-13 20:20:00,
2013-05-13 13:25:00,61.3,44.5,29.90,ENE,62,6.0,13.0,54,0.00,,,-99.99,Weather View 32 v60,2013-05-13 20:25:00,
2013-05-13 13:30:00,76.4,57.9,29.90,NE,38,7.0,13.0,53,0.00,,,-99.99,Weather View 32 v60,2013-05-13 20:30:00,
2013-05-13 13:35:00,76.7,57.2,29.90,NNE,33,6.0,13.0,51,0.00,,,-99.99,Weather View 32 v60,2013-05-13 20:35:00,
2013-05-13 13:40:00,76.9,57.3,29.90,NNE,31,3.0,13.0,51,0.00,,,-99.99,Weather View 32 v60,2013-05-13 20:40:00,
2013-05-13 13:50:00,68.4,49.5,29.89,North,349,5.0,13.0,51,0.00,,,-99.99,Weather View 32 v60,2013-05-13 20:50:00,
2013-05-13 13:56:00,72.9,53.1,29.89,NNW,342,7.0,13.0,50,0.00,,,-99.99,Weather View 32 v60,2013-05-13 20:56:00,
2013-05-13 14:05:00,75.1,54.6,29.89,NNE,23,4.0,12.0,49,0.00,,,-99.99,Weather View 32 v60,2013-05-13 21:05:00,
2013-05-13 14:10:00,75.3,54.8,29.88,North,353,7.0,12.0,49,0.00,,,-99.99,Weather View 32 v60,2013-05-13 21:10:00,
2013-05-13 14:20:00,75.7,55.1,29.88,NNE,18,5.0,11.0,49,0.00,,,-99.99,Weather View 32 v60,2013-05-13 21:20:00,
2013-05-13 14:30:00,75.6,54.5,29.88,North,6,4.0,11.0,48,0.00,,,-99.99,Weather View 32 v60,2013-05-13 21:30:00,
2013-05-13 14:40:00,75.9,54.7,29.88,NNE,19,2.0,11.0,48,0.00,,,-99.99,Weather View 32 v60,2013-05-13 21:40:00,
2013-05-13 14:45:00,76.1,55.5,29.88,North,3,4.0,11.0,49,0.00,,,-99.99,Weather View 32 v60,2013-05-13 21:45:00,
2013-05-13 14:55:00,76.6,54.2,29.87,North,354,5.0,11.0,46,0.00,,,-99.99,Weather View 32 v60,2013-05-13 21:55:00,
2013-05-13 15:00:00,76.7,54.9,29.87,North,1,3.0,11.0,47,0.00,,,-99.99,Weather View 32 v60,2013-05-13 22:00:00,
2013-05-13 15:10:00,76.9,55.1,29.87,North,0,6.0,11.0,47,0.00,,,-99.99,Weather View 32 v60,2013-05-13 22:10:00,
2013-05-13 15:20:00,76.8,54.4,29.87,SSW,210,2.0,11.0,46,0.00,,,-99.99,Weather View 32 v60,2013-05-13 22:20:00,
2013-05-13 15:25:00,80.7,58.5,29.86,NNW,339,5.0,10.0,47,0.00,,,-99.99,Weather View 32 v60,2013-05-13 22:25:00,
2013-05-13 15:35:00,80.8,57.4,29.86,SSW,211,3.0,10.0,45,0.00,,,-99.99,Weather View 32 v60,2013-05-13 22:35:00,
2013-05-13 15:40:00,81.7,58.2,29.86,South,180,0.0,10.0,45,0.00,,,-99.99,Weather View 32 v60,2013-05-13 22:40:00,
2013-05-13 15:45:00,82.1,57.9,29.86,SW,220,4.0,10.0,44,0.00,,,-99.99,Weather View 32 v60,2013-05-13 22:45:00,
2013-05-13 15:50:00,82.3,57.5,29.85,NNW,332,2.0,10.0,43,0.00,,,-99.99,Weather View 32 v60,2013-05-13 22:50:00,
2013-05-13 15:57:00,82.2,57.4,29.85,SSW,201,1.0,8.0,43,0.00,,,-99.99,Weather View 32 v60,2013-05-13 22:57:00,
2013-05-13 16:05:00,83.0,56.8,29.84,South,184,0.0,8.0,41,0.00,,,-99.99,Weather View 32 v60,2013-05-13 23:05:00,
2013-05-13 16:10:00,83.8,57.5,29.84,SSW,199,0.0,8.0,41,0.00,,,-99.99,Weather View 32 v60,2013-05-13 23:10:00,
2013-05-13 16:15:00,84.1,57.1,29.84,South,183,0.0,8.0,40,0.00,,,-99.99,Weather View 32 v60,2013-05-13 23:15:00,
2013-05-13 16:20:00,84.9,57.8,29.84,SSE,160,0.0,8.0,40,0.00,,,-99.99,Weather View 32 v60,2013-05-13 23:20:00,
2013-05-13 16:30:00,85.7,57.8,29.84,South,183,0.0,8.0,39,0.00,,,-99.99,Weather View 32 v60,2013-05-13 23:30:00,
2013-05-13 16:35:00,85.8,57.2,29.84,South,183,0.0,8.0,38,0.00,,,-99.99,Weather View 32 v60,2013-05-13 23:35:00,
2013-05-13 16:45:00,86.6,57.9,29.83,SW,234,2.0,9.0,38,0.00,,,-99.99,Weather View 32 v60,2013-05-13 23:45:00,
2013-05-13 16:50:00,87.1,57.6,29.83,South,190,0.0,9.0,37,0.00,,,-99.99,Weather View 32 v60,2013-05-13 23:50:00,
2013-05-13 16:58:00,87.4,57.1,29.83,WSW,244,0.0,9.0,36,0.00,,,-99.99,Weather View 32 v60,2013-05-13 23:58:00,
2013-05-13 17:05:00,87.4,57.8,29.83,South,183,3.0,9.0,37,0.00,,,-99.99,Weather View 32 v60,2013-05-14 00:05:00,
2013-05-13 17:15:00,87.7,57.3,29.82,NNE,12,4.0,9.0,36,0.00,,,-99.99,Weather View 32 v60,2013-05-14 00:15:00,
2013-05-13 17:20:00,87.5,57.2,29.82,NNE,12,1.0,9.0,36,0.00,,,-99.99,Weather View 32 v60,2013-05-14 00:20:00,
2013-05-13 17:30:00,86.7,56.5,29.82,WSW,244,0.0,9.0,36,0.00,,,-99.99,Weather View 32 v60,2013-05-14 00:30:00,
2013-05-13 17:40:00,85.1,56.5,29.82,SW,229,1.0,7.0,38,0.00,,,-99.99,Weather View 32 v60,2013-05-14 00:40:00,
2013-05-13 17:45:00,84.4,55.9,29.81,SSW,201,2.0,6.0,38,0.00,,,-99.99,Weather View 32 v60,2013-05-14 00:45:00,
2013-05-13 17:50:00,83.7,55.3,29.81,SW,231,0.0,7.0,38,0.00,,,-99.99,Weather View 32 v60,2013-05-14 00:50:00,
2013-05-13 17:58:00,82.9,53.9,29.81,SSE,160,4.0,8.0,37,0.00,,,-99.99,Weather View 32 v60,2013-05-14 00:58:00,
2013-05-13 18:05:00,81.3,53.2,29.80,SSW,204,2.0,8.0,38,0.00,,,-99.99,Weather View 32 v60,2013-05-14 01:05:00,
2013-05-13 18:10:00,80.7,52.7,29.80,NNW,341,3.0,8.0,38,0.00,,,-99.99,Weather View 32 v60,2013-05-14 01:10:00,
2013-05-13 18:20:00,79.0,52.5,29.80,NNW,339,0.0,8.0,40,0.00,,,-99.99,Weather View 32 v60,2013-05-14 01:20:00,
2013-05-13 18:25:00,78.2,52.5,29.80,South,188,0.0,8.0,41,0.00,,,-99.99,Weather View 32 v60,2013-05-14 01:25:00,
2013-05-13 18:35:00,77.6,51.3,29.80,North,357,0.0,8.0,40,0.00,,,-99.99,Weather View 32 v60,2013-05-14 01:35:00,
2013-05-13 18:40:00,77.2,52.9,29.80,North,357,0.0,8.0,43,0.00,,,-99.99,Weather View 32 v60,2013-05-14 01:40:00,
2013-05-13 18:45:00,76.8,52.5,29.79,North,357,0.0,8.0,43,0.00,,,-99.99,Weather View 32 v60,2013-05-14 01:45:00,
2013-05-13 18:50:00,76.3,52.7,29.79,North,357,0.0,8.0,44,0.00,,,-99.99,Weather View 32 v60,2013-05-14 01:50:00,
2013-05-13 18:59:00,75.9,52.4,29.79,North,357,0.0,8.0,44,0.00,,,-99.99,Weather View 32 v60,2013-05-14 01:59:00,
2013-05-13 19:05:00,74.9,52.7,29.79,North,352,0.0,7.0,46,0.00,,,-99.99,Weather View 32 v60,2013-05-14 02:05:00,
2013-05-13 19:10:00,74.5,52.3,29.79,North,352,0.0,7.0,46,0.00,,,-99.99,Weather View 32 v60,2013-05-14 02:10:00,
2013-05-13 19:20:00,73.8,52.8,29.79,NNW,338,0.0,3.0,48,0.00,,,-99.99,Weather View 32 v60,2013-05-14 02:20:00,
2013-05-13 19:25:00,73.2,52.3,29.79,North,6,3.0,5.0,48,0.00,,,-99.99,Weather View 32 v60,2013-05-14 02:25:00,
2013-05-13 19:30:00,72.9,52.6,29.79,North,5,0.0,5.0,49,0.00,,,-99.99,Weather View 32 v60,2013-05-14 02:30:00,
2013-05-13 19:40:00,72.5,52.7,29.79,North,5,0.0,5.0,50,0.00,,,-99.99,Weather View 32 v60,2013-05-14 02:40:00,
2013-05-13 19:45:00,72.3,53.1,29.79,North,6,0.0,5.0,51,0.00,,,-99.99,Weather View 32 v60,2013-05-14 02:45:00,
2013-05-13 19:50:00,71.9,52.7,29.78,North,5,0.0,5.0,51,0.00,,,-99.99,Weather View 32 v60,2013-05-14 02:50:00,
2013-05-13 19:59:00,71.6,53.0,29.79,North,5,0.0,5.0,52,0.00,,,-99.99,Weather View 32 v60,2013-05-14 02:59:00,
2013-05-13 20:05:00,70.6,53.1,29.79,North,4,0.0,5.0,54,0.00,,,-99.99,Weather View 32 v60,2013-05-14 03:05:00,
2013-05-13 20:10:00,70.3,52.8,29.79,North,4,0.0,5.0,54,0.00,,,-99.99,Weather View 32 v60,2013-05-14 03:10:00,
2013-05-13 20:20:00,69.6,52.7,29.79,North,4,0.0,5.0,55,0.00,,,-99.99,Weather View 32 v60,2013-05-14 03:20:00,
2013-05-13 20:25:00,69.3,52.4,29.79,North,4,0.0,4.0,55,0.00,,,-99.99,Weather View 32 v60,2013-05-14 03:25:00,
2013-05-13 20:30:00,68.9,52.5,29.79,North,4,0.0,4.0,56,0.00,,,-99.99,Weather View 32 v60,2013-05-14 03:30:00,
2013-05-13 20:35:00,68.7,52.3,29.80,North,4,0.0,4.0,56,0.00,,,-99.99,Weather View 32 v60,2013-05-14 03:35:00,
2013-05-13 20:40:00,68.4,52.0,29.79,North,4,0.0,4.0,56,0.00,,,-99.99,Weather View 32 v60,2013-05-14 03:40:00,
2013-05-13 20:50:00,62.4,46.5,29.80,SSE,148,0.0,4.0,56,0.00,,,-99.99,Weather View 32 v60,2013-05-14 03:50:00,
2013-05-13 20:55:00,66.2,50.0,29.80,SSE,148,0.0,4.0,56,0.00,,,-99.99,Weather View 32 v60,2013-05-14 03:55:00,
2013-05-13 21:05:00,65.3,48.7,29.80,SSE,148,0.0,3.0,55,0.00,,,-99.99,Weather View 32 v60,2013-05-14 04:05:00,
2013-05-13 21:10:00,64.4,47.8,29.80,SSE,148,0.0,3.0,55,0.00,,,-99.99,Weather View 32 v60,2013-05-14 04:10:00,
2013-05-13 21:15:00,64.5,47.4,29.80,SSE,148,0.0,3.0,54,0.00,,,-99.99,Weather View 32 v60,2013-05-14 04:15:00,
2013-05-13 21:20:00,64.6,47.5,29.80,SSE,148,0.0,3.0,54,0.00,,,-99.99,Weather View 32 v60,2013-05-14 04:20:00,
2013-05-13 21:30:00,64.5,47.9,29.80,SSE,148,0.0,3.0,55,0.00,,,-99.99,Weather View 32 v60,2013-05-14 04:30:00,
2013-05-13 21:35:00,64.3,47.7,29.80,SSE,148,0.0,3.0,55,0.00,,,-99.99,Weather View 32 v60,2013-05-14 04:35:00,
2013-05-13 21:40:00,64.2,48.1,29.80,SSE,148,0.0,3.0,56,0.00,,,-99.99,Weather View 32 v60,2013-05-14 04:40:00,
2013-05-13 21:50:00,63.1,47.1,29.81,SSE,148,0.0,3.0,56,0.00,,,-99.99,Weather View 32 v60,2013-05-14 04:50:00,
2013-05-13 21:55:00,52.6,37.3,29.81,SSE,148,0.0,3.0,56,0.00,,,-99.99,Weather View 32 v60,2013-05-14 04:55:00,
2013-05-13 22:00:00,54.7,40.2,29.81,SSE,148,0.0,1.0,58,0.00,,,-99.99,Weather View 32 v60,2013-05-14 05:00:00,
2013-05-13 22:05:00,53.8,39.8,29.81,SSE,148,0.0,1.0,59,0.00,,,-99.99,Weather View 32 v60,2013-05-14 05:05:00,
2013-05-13 22:10:00,57.4,43.2,29.81,SSE,148,0.0,1.0,59,0.00,,,-99.99,Weather View 32 v60,2013-05-14 05:10:00,
2013-05-13 22:15:00,57.0,42.8,29.81,SSE,148,0.0,1.0,59,0.00,,,-99.99,Weather View 32 v60,2013-05-14 05:15:00,
2013-05-13 22:20:00,62.2,47.7,29.81,SSE,148,0.0,1.0,59,0.00,,,-99.99,Weather View 32 v60,2013-05-14 05:20:00,
2013-05-13 22:30:00,51.2,37.8,29.81,SSE,148,0.0,0.0,60,0.00,,,-99.99,Weather View 32 v60,2013-05-14 05:30:00,
2013-05-13 22:40:00,60.2,47.5,29.81,SSE,148,0.0,0.0,63,0.00,,,-99.99,Weather View 32 v60,2013-05-14 05:40:00,
2013-05-13 22:45:00,57.9,44.9,29.81,SSE,148,0.0,0.0,62,0.00,,,-99.99,Weather View 32 v60,2013-05-14 05:45:00,
2013-05-13 22:50:00,54.7,42.3,29.81,SSE,148,0.0,0.0,63,0.00,,,-99.99,Weather View 32 v60,2013-05-14 05:50:00,
2013-05-13 23:00:00,53.9,42.0,29.81,SSE,148,0.0,0.0,64,0.00,,,-99.99,Weather View 32 v60,2013-05-14 06:00:00,
2013-05-13 23:05:00,54.5,42.5,29.80,SSE,148,0.0,0.0,64,0.00,,,-99.99,Weather View 32 v60,2013-05-14 06:05:00,
2013-05-13 23:10:00,55.0,43.0,29.80,SSE,148,0.0,0.0,64,0.00,,,-99.99,Weather View 32 v60,2013-05-14 06:10:00,
2013-05-13 23:20:00,59.2,47.0,29.80,SSE,148,0.0,0.0,64,0.00,,,-99.99,Weather View 32 v60,2013-05-14 06:20:00,
2013-05-13 23:25:00,58.2,46.1,29.80,SSE,148,0.0,0.0,64,0.00,,,-99.99,Weather View 32 v60,2013-05-14 06:25:00,
2013-05-13 23:30:00,53.0,41.5,29.80,SSE,148,0.0,0.0,65,0.00,,,-99.99,Weather View 32 v60,2013-05-14 06:30:00,
2013-05-13 23:35:00,52.7,41.6,29.80,SSE,148,0.0,0.0,66,0.00,,,-99.99,Weather View 32 v60,2013-05-14 06:35:00,
2013-05-13 23:40:00,51.2,40.6,29.80,SSE,148,0.0,0.0,67,0.00,,,-99.99,Weather View 32 v60,2013-05-14 06:40:00,
2013-05-13 23:50:00,53.5,42.4,29.80,SSE,148,0.0,0.0,66,0.00,,,-99.99,Weather View 32 v60,2013-05-14 06:50:00,
2013-05-13 23:55:00,51.1,40.5,29.80,SSE,148,0.0,0.0,67,0.00,,,-99.99,Weather View 32 v60,2013-05-14 06:55:00,